Terminal Aerodrome Forecast
Issued by NWS Melbourne, FL

Home | Current Version | Previous Version | Text Only | Print | Product List | Glossary On
Versions: 1 2 3 4 5 6 7 8 9 10 11 12 13 14
000
FTUS42 KMLB 220540
TAFMLB
TAF
KMLB 220540Z 2206/2306 09008KT P6SM SCT025 SCT050
     FM221500 10011KT P6SM SCT035
     FM230000 08007KT P6SM SCT030=

USA.gov is the U.S. government's official web portal to all federal, state and local government web resources and services.